TJBQMDST

Guest
Details From TJBQ - Rafael Hernandez
To MDST - Santiago Cibao Intl
Flight Number -
Tags Generated
Created
Modified
Stats Distance 205 nm / 379 km
Max Altitude 0 ft / 0 m
Waypoints 2
Social Downloads 0
Likes 0
Share VATSIM

Download

Looking for another format? Having issues loading an existing format? Contact us
Advertisement - Login to hide

Notes

Generated

Route

TJBQ MDST

ID Type Via Altitude Latitude Longitude Leg Dist Tot Dist Heading (true) Name
O TJBQ APT - 0 ft / 0 m 18.48995˚ -67.14536˚ - 0 nm - -
O MDST APT - 0 ft / 0 m 19.40876˚ -70.61689˚ 204 nm 204 nm 286° / 285° -

Altitude Profile

Advertisement - Login to hide

Weather


0- 5 10 15 20 25 30 35+ Temperature / ° C

Clouds and Precipitation
Forecast for 2018-05-22 00:00 UTC. Updated an hour ago

Ground ~20,000 ft ~40,000 ft Winds

TJBQ

Details ICAO TJBQ (BQN)
Name Aguadilla/Rafael Hernandez
Region USA (Puerto Rico)
Timezone America/Puerto_Rico (UTC-4.0)
Stats Elevation 237 ft / 72 m (AMSL)
Location 18.494825° -67.129216°
Runways 1
Magnetic Variation 12.762° W

METAR

TJBQ 212350Z 17004KT 10SM SCT021 BKN028 BKN055 23/21 A3003

Decode

TAF

TAF TAF TJBQ 212338Z 2200/2224 11012KT P6SM -SHRA BKN040 BKN060 FM220200 11006KT P6SM FEW060 FM221400 08015G25KT P6SM SCT030 FM221800 08015G25KT P6SM -SHRA SCT025 BKN035 BKN060 FM222350 10010KT P6SM SCT050 AMD NOT SKED 2202/2211

Decode

Departure Runways

ID Width Length Bearing (true) Bearing (mag) Surface Threshold Offset Overrun Length
08 200 ft / 61 m 11,724 ft / 3,574 m 72.33° 85.09° Asphalt 400 ft / 122 m 768 ft / 234 m
26 200 ft / 61 m 11,724 ft / 3,574 m 252.34° 265.10° Asphalt 0 ft / 0 m 151 ft / 46 m

MDST

Details ICAO MDST (STI)
Name Santiago Cibao Intl
Region Dominican Republic
Timezone America/Santo_Domingo (UTC-4.0)
Stats Elevation 563 ft / 172 m (AMSL)
Location 19.406091° -70.604689°
Runways 1
Magnetic Variation 11.202° W

METAR

MDST 220000Z 11012KT 9999 FEW022 BKN300 25/21 Q1015 NOSIG

Decode

TAF

Not found

Destination Runways

ID Width Length Bearing (true) Bearing (mag) Surface Threshold Offset Overrun Length
11 148 ft / 45 m 8,619 ft / 2,627 m 103.07° 114.27° Asphalt 0 ft / 0 m 200 ft / 61 m
29 148 ft / 45 m 8,619 ft / 2,627 m 283.08° 294.28° Asphalt 0 ft / 0 m 200 ft / 61 m

Approach Navaids

Runway Type Ident Frequency Range Bearing (true) Bearing (mag) Slope Elevation
11 Localiser EXP 109.30 MHz 18 nm / 33 km 103.11° 114.31° - 565 ft / 172 m (AMSL)
11 Glidescope EXP 109.30 MHz 10 nm / 19 km 103.08° 114.28° 2.80° 565 ft / 172 m (AMSL)
11 DME EXP 109.30 MHz 18 nm / 33 km - - - 563 ft / 172 m (AMSL)